Time;durP1;ratioP1;P1;durP2;ratioP2;P2;SDS_P1;SDS_P2;PMS_P1;PMS_P2;Temp;Humidity;BMP_temperature;BMP_pressure;BME280_temperature;BME280_humidity;BME280_pressure;Samples;Min_cycle;Max_cycle;Signal;HPM_P1;HPM_P2
2021/04/25 00:01:46;;;;;;;3.80;2.00;;;;;;;;;;5068468;28;20661;-84
2021/04/25 00:04:15;;;;;;;2.83;1.42;;;;;;;;;;5075732;28;20247;-84
2021/04/25 00:06:43;;;;;;;3.20;1.77;;;;;;;;;;5075577;28;20631;-83
2021/04/25 00:09:10;;;;;;;3.65;1.80;;;;;;;;;;5072185;28;20336;-82
2021/04/25 00:11:37;;;;;;;4.10;1.60;;;;;;;;;;5056392;28;20252;-84
2021/04/25 00:14:05;;;;;;;2.95;1.98;;;;;;;;;;5055729;28;20194;-83
2021/04/25 00:16:31;;;;;;;4.80;1.83;;;;;;;;;;5056079;28;20217;-83
2021/04/25 00:18:59;;;;;;;3.38;1.80;;;;;;;;;;5055290;28;20182;-84
2021/04/25 00:21:27;;;;;;;2.40;1.88;;;;;;;;;;5074355;28;20632;-83
2021/04/25 00:23:54;;;;;;;3.53;1.80;;;;;;;;;;5073377;28;20182;-83
2021/04/25 00:26:21;;;;;;;4.18;2.50;;;;;;;;;;5075333;28;20269;-83
2021/04/25 00:28:48;;;;;;;2.42;1.88;;;;;;;;;;5074215;28;20204;-83
2021/04/25 00:31:15;;;;;;;2.00;1.25;;;;;;;;;;5074253;28;20204;-83
2021/04/25 00:33:42;;;;;;;3.72;1.92;;;;;;;;;;5074192;28;20608;-83
2021/04/25 00:36:10;;;;;;;6.22;2.50;;;;;;;;;;5073793;28;20586;-83
2021/04/25 00:38:38;;;;;;;4.15;2.00;;;;;;;;;;5074325;28;20617;-83
2021/04/25 00:41:06;;;;;;;2.38;1.70;;;;;;;;;;5074723;28;20197;-83
2021/04/25 00:43:33;;;;;;;2.42;1.98;;;;;;;;;;5074932;28;20232;-83
2021/04/25 00:46:00;;;;;;;2.50;1.63;;;;;;;;;;5074676;28;20205;-84
2021/04/25 00:48:27;;;;;;;2.85;1.65;;;;;;;;;;5074960;28;20260;-82
2021/04/25 00:50:54;;;;;;;2.78;2.03;;;;;;;;;;5074757;28;20185;-82
2021/04/25 00:53:21;;;;;;;2.47;1.88;;;;;;;;;;5074389;28;20613;-82
2021/04/25 00:55:50;;;;;;;2.50;1.95;;;;;;;;;;5074896;28;20188;-83
2021/04/25 00:58:18;;;;;;;3.25;2.38;;;;;;;;;;5074879;28;20185;-83
2021/04/25 01:00:45;;;;;;;5.70;2.10;;;;;;;;;;5074846;28;20615;-82
2021/04/25 01:03:12;;;;;;;3.30;1.50;;;;;;;;;;5074536;28;20232;-83
2021/04/25 01:05:40;;;;;;;3.92;2.17;;;;;;;;;;5074593;28;20189;-83
2021/04/25 01:08:07;;;;;;;3.33;2.35;;;;;;;;;;5074419;28;20196;-82
2021/04/25 01:10:34;;;;;;;3.10;2.28;;;;;;;;;;5073786;28;20248;-83
2021/04/25 01:13:02;;;;;;;2.25;2.05;;;;;;;;;;5074221;28;20270;-82
2021/04/25 01:15:29;;;;;;;5.53;2.08;;;;;;;;;;5073860;28;20249;-83
2021/04/25 01:17:56;;;;;;;3.25;1.77;;;;;;;;;;5074649;28;20216;-83
2021/04/25 01:20:24;;;;;;;3.30;1.77;;;;;;;;;;5074123;28;20222;-83
2021/04/25 01:22:52;;;;;;;3.65;2.10;;;;;;;;;;5073817;28;20711;-83
2021/04/25 01:25:21;;;;;;;2.50;1.60;;;;;;;;;;5074083;28;20264;-83
2021/04/25 01:27:48;;;;;;;3.28;1.85;;;;;;;;;;5074495;28;20196;-83
2021/04/25 01:30:20;;;;;;;2.88;1.77;;;;;;;;;;5074121;28;20231;-82
2021/04/25 01:32:47;;;;;;;3.75;2.13;;;;;;;;;;5074181;28;20209;-83
2021/04/25 01:35:21;;;;;;;3.58;1.60;;;;;;;;;;5073607;28;20654;-83
2021/04/25 01:37:48;;;;;;;4.55;2.92;;;;;;;;;;5074124;28;20561;-83
2021/04/25 01:40:17;;;;;;;5.25;3.03;;;;;;;;;;5074336;28;20181;-84
2021/04/25 01:42:44;;;;;;;4.18;2.58;;;;;;;;;;5074131;28;20662;-83
2021/04/25 01:45:16;;;;;;;3.78;2.35;;;;;;;;;;5073730;28;20184;-83
2021/04/25 01:47:45;;;;;;;2.33;2.10;;;;;;;;;;5074381;28;20542;-83
2021/04/25 01:50:13;;;;;;;2.67;2.30;;;;;;;;;;5077782;28;20205;-83
2021/04/25 01:52:40;;;;;;;9.43;2.85;;;;;;;;;;5077856;28;20224;-82
2021/04/25 01:55:10;;;;;;;5.95;2.65;;;;;;;;;;5077971;28;20192;-84
2021/04/25 01:57:38;;;;;;;5.28;3.30;;;;;;;;;;5077980;28;20197;-82
2021/04/25 02:00:09;;;;;;;4.07;2.40;;;;;;;;;;5078196;28;20200;-83
2021/04/25 02:02:36;;;;;;;2.97;2.50;;;;;;;;;;5078016;28;20217;-83
2021/04/25 02:05:04;;;;;;;6.70;2.08;;;;;;;;;;5077826;28;20231;-83
2021/04/25 02:07:31;;;;;;;5.82;3.03;;;;;;;;;;5077620;28;20647;-83
2021/04/25 02:09:58;;;;;;;4.82;2.08;;;;;;;;;;5077602;28;20583;-83
2021/04/25 02:12:25;;;;;;;4.93;2.67;;;;;;;;;;5077646;28;20221;-83
2021/04/25 02:14:53;;;;;;;3.72;2.50;;;;;;;;;;5077628;28;20288;-84
2021/04/25 02:17:20;;;;;;;4.25;2.90;;;;;;;;;;5077799;28;20193;-83
2021/04/25 02:19:47;;;;;;;6.97;3.15;;;;;;;;;;5077254;28;20200;-83
2021/04/25 02:22:14;;;;;;;3.92;3.15;;;;;;;;;;5077076;28;20703;-83
2021/04/25 02:24:41;;;;;;;4.47;2.80;;;;;;;;;;5077195;28;20201;-83
2021/04/25 02:27:08;;;;;;;6.28;3.05;;;;;;;;;;5077472;28;20201;-83
2021/04/25 02:29:35;;;;;;;5.10;2.92;;;;;;;;;;5077142;28;20225;-82
2021/04/25 02:32:03;;;;;;;5.45;3.13;;;;;;;;;;5076841;28;20221;-83
2021/04/25 02:34:30;;;;;;;4.78;2.95;;;;;;;;;;5076900;28;20173;-83
2021/04/25 02:36:57;;;;;;;10.05;4.82;;;;;;;;;;5076932;28;20185;-82
2021/04/25 02:39:24;;;;;;;7.95;3.70;;;;;;;;;;5077279;28;20685;-83
2021/04/25 02:41:51;;;;;;;4.90;3.08;;;;;;;;;;5075875;28;20240;-83
2021/04/25 02:44:18;;;;;;;3.67;3.10;;;;;;;;;;5076986;28;20213;-83
2021/04/25 02:46:45;;;;;;;5.60;3.20;;;;;;;;;;5077015;28;20212;-83
2021/04/25 02:49:13;;;;;;;7.07;4.03;;;;;;;;;;5077072;28;20204;-83
2021/04/25 02:51:40;;;;;;;6.25;3.70;;;;;;;;;;5076600;28;20216;-82
2021/04/25 02:54:07;;;;;;;7.50;2.78;;;;;;;;;;5076798;28;20542;-83
2021/04/25 02:56:34;;;;;;;6.38;3.47;;;;;;;;;;5077266;28;20264;-83
2021/04/25 02:59:01;;;;;;;6.28;4.15;;;;;;;;;;5077190;28;20223;-83
2021/04/25 03:01:28;;;;;;;5.07;3.72;;;;;;;;;;5076104;28;20201;-82
2021/04/25 03:03:55;;;;;;;9.60;4.43;;;;;;;;;;5077053;28;20725;-83
2021/04/25 03:06:23;;;;;;;4.65;3.17;;;;;;;;;;5077349;28;20602;-82
2021/04/25 03:08:50;;;;;;;6.40;4.10;;;;;;;;;;5076741;28;20182;-83
2021/04/25 03:11:17;;;;;;;12.55;4.97;;;;;;;;;;5076229;28;20208;-82
2021/04/25 03:13:44;;;;;;;9.93;3.90;;;;;;;;;;5076862;28;20182;-83
2021/04/25 03:16:11;;;;;;;9.40;4.45;;;;;;;;;;5076120;28;20222;-83
2021/04/25 03:18:38;;;;;;;6.10;3.60;;;;;;;;;;5076850;28;20182;-83
2021/04/25 03:21:05;;;;;;;7.40;4.13;;;;;;;;;;5076606;28;20250;-83
2021/04/25 03:23:33;;;;;;;6.97;3.85;;;;;;;;;;5075996;28;20225;-82
2021/04/25 03:26:00;;;;;;;5.05;3.63;;;;;;;;;;5076627;28;20236;-84
2021/04/25 03:28:27;;;;;;;7.38;4.25;;;;;;;;;;5076693;28;20205;-83
2021/04/25 03:30:55;;;;;;;8.00;4.82;;;;;;;;;;5076310;28;20613;-83
2021/04/25 03:33:22;;;;;;;5.80;3.75;;;;;;;;;;5076365;28;20249;-82
2021/04/25 03:35:49;;;;;;;9.02;4.75;;;;;;;;;;5076192;28;20189;-82
2021/04/25 03:38:17;;;;;;;9.23;4.80;;;;;;;;;;5076031;28;20182;-83
2021/04/25 03:40:44;;;;;;;6.75;5.03;;;;;;;;;;5076011;28;20554;-83
2021/04/25 03:43:11;;;;;;;9.95;4.95;;;;;;;;;;5076030;28;20221;-84
2021/04/25 03:45:38;;;;;;;7.93;5.40;;;;;;;;;;5075987;28;20266;-83
2021/04/25 03:48:06;;;;;;;5.88;4.22;;;;;;;;;;5076373;28;20262;-82
2021/04/25 03:50:36;;;;;;;4.90;4.20;;;;;;;;;;5076376;28;20638;-82
2021/04/25 03:53:02;;;;;;;6.88;4.40;;;;;;;;;;5076703;28;20221;-83
2021/04/25 03:55:30;;;;;;;10.52;4.85;;;;;;;;;;5076551;28;20192;-83
2021/04/25 03:57:57;;;;;;;8.80;5.15;;;;;;;;;;5076235;28;20212;-83
2021/04/25 04:00:25;;;;;;;7.30;4.32;;;;;;;;;;5076087;28;20246;-83
2021/04/25 04:02:51;;;;;;;7.45;3.95;;;;;;;;;;5075892;28;20223;-83
2021/04/25 04:05:19;;;;;;;11.05;4.57;;;;;;;;;;5075763;28;20206;-83
2021/04/25 04:07:46;;;;;;;9.95;4.57;;;;;;;;;;5075891;28;20560;-82
2021/04/25 04:10:13;;;;;;;9.38;4.80;;;;;;;;;;5075737;28;20249;-83
2021/04/25 04:12:41;;;;;;;8.65;4.95;;;;;;;;;;5074946;28;20586;-83
2021/04/25 04:15:10;;;;;;;6.05;3.92;;;;;;;;;;5075785;28;20212;-82
2021/04/25 04:17:37;;;;;;;8.52;3.60;;;;;;;;;;5075831;28;20182;-83
2021/04/25 04:20:06;;;;;;;11.80;5.13;;;;;;;;;;5075931;28;20182;-82
2021/04/25 04:22:33;;;;;;;6.88;3.90;;;;;;;;;;5075713;28;20265;-83
2021/04/25 04:25:00;;;;;;;8.07;4.72;;;;;;;;;;5075548;28;20219;-82
2021/04/25 04:27:27;;;;;;;9.02;4.60;;;;;;;;;;5075867;28;20228;-83
2021/04/25 04:29:54;;;;;;;7.65;4.18;;;;;;;;;;5075929;28;20709;-84
2021/04/25 04:32:22;;;;;;;7.35;3.85;;;;;;;;;;5075564;28;20221;-85
2021/04/25 04:34:49;;;;;;;5.82;3.72;;;;;;;;;;5075833;28;20239;-83
2021/04/25 04:37:16;;;;;;;10.95;4.80;;;;;;;;;;5075417;28;20177;-84
2021/04/25 04:39:43;;;;;;;5.38;4.07;;;;;;;;;;5075070;28;20201;-83
2021/04/25 04:42:10;;;;;;;6.90;4.22;;;;;;;;;;5074710;28;20221;-83
2021/04/25 04:44:38;;;;;;;7.00;4.80;;;;;;;;;;5074461;28;20593;-84
2021/04/25 04:47:05;;;;;;;5.40;3.90;;;;;;;;;;5074262;28;20181;-83
2021/04/25 04:49:35;;;;;;;7.50;4.32;;;;;;;;;;5074281;28;20182;-83
2021/04/25 04:52:02;;;;;;;9.63;5.07;;;;;;;;;;5074685;28;20221;-83
2021/04/25 04:54:29;;;;;;;8.30;4.57;;;;;;;;;;5074171;28;20205;-83
2021/04/25 04:56:55;;;;;;;8.48;4.38;;;;;;;;;;5074395;28;20243;-82
2021/04/25 04:59:22;;;;;;;6.45;4.32;;;;;;;;;;5073856;28;20239;-82
2021/04/25 05:01:49;;;;;;;8.43;5.00;;;;;;;;;;5074594;28;20217;-83
2021/04/25 05:04:17;;;;;;;7.07;4.35;;;;;;;;;;5073706;28;20229;-83
2021/04/25 05:06:44;;;;;;;6.55;4.47;;;;;;;;;;5074073;28;20205;-82
2021/04/25 05:09:11;;;;;;;9.57;5.03;;;;;;;;;;5074659;28;20185;-83
2021/04/25 05:11:38;;;;;;;7.45;4.38;;;;;;;;;;5074499;28;20221;-84
2021/04/25 05:14:05;;;;;;;6.82;4.13;;;;;;;;;;5075321;28;20193;-83
2021/04/25 05:16:32;;;;;;;10.05;5.22;;;;;;;;;;5074555;28;20197;-83
2021/04/25 05:18:59;;;;;;;6.75;4.38;;;;;;;;;;5074731;28;20246;-82
2021/04/25 05:21:26;;;;;;;5.47;3.70;;;;;;;;;;5074678;28;20235;-83
2021/04/25 05:23:54;;;;;;;8.80;4.95;;;;;;;;;;5074440;28;20241;-83
2021/04/25 05:26:21;;;;;;;6.63;4.03;;;;;;;;;;5074284;28;20636;-83
2021/04/25 05:28:48;;;;;;;9.18;4.68;;;;;;;;;;5074802;28;20205;-84
2021/04/25 05:31:15;;;;;;;9.75;4.75;;;;;;;;;;5074935;28;20267;-83
2021/04/25 05:33:42;;;;;;;6.20;3.80;;;;;;;;;;5074368;28;20266;-83
2021/04/25 05:36:09;;;;;;;8.82;3.88;;;;;;;;;;5074649;28;20174;-83
2021/04/25 05:38:36;;;;;;;5.70;3.67;;;;;;;;;;5075348;28;20194;-83
2021/04/25 05:41:04;;;;;;;9.07;5.30;;;;;;;;;;5073358;28;20211;-83
2021/04/25 05:43:31;;;;;;;8.15;4.35;;;;;;;;;;5074520;28;20229;-83
2021/04/25 05:45:58;;;;;;;5.85;4.25;;;;;;;;;;5075344;28;20204;-86
2021/04/25 05:48:25;;;;;;;6.35;3.88;;;;;;;;;;5075351;28;20212;-85
2021/04/25 05:50:52;;;;;;;10.95;4.47;;;;;;;;;;5075092;28;20262;-85
2021/04/25 05:53:19;;;;;;;7.38;4.05;;;;;;;;;;5075970;28;20310;-85
2021/04/25 05:55:46;;;;;;;7.68;3.70;;;;;;;;;;5075984;28;20277;-84
2021/04/25 05:58:14;;;;;;;4.57;3.63;;;;;;;;;;5076633;28;20180;-86
2021/04/25 06:00:41;;;;;;;6.78;4.20;;;;;;;;;;5076641;28;20197;-85
2021/04/25 06:03:08;;;;;;;7.72;4.53;;;;;;;;;;5076084;28;20349;-84
2021/04/25 06:05:36;;;;;;;9.18;3.92;;;;;;;;;;5076406;28;20185;-86
2021/04/25 06:08:03;;;;;;;5.45;3.20;;;;;;;;;;5075782;28;20181;-85
2021/04/25 06:10:30;;;;;;;7.20;3.05;;;;;;;;;;5074484;28;20865;-85
2021/04/25 06:12:57;;;;;;;5.50;3.28;;;;;;;;;;5074554;28;20229;-85
2021/04/25 06:15:26;;;;;;;7.18;3.50;;;;;;;;;;5075193;28;20193;-85
2021/04/25 06:17:53;;;;;;;4.47;3.40;;;;;;;;;;5074489;28;20177;-84
2021/04/25 06:20:21;;;;;;;7.80;4.40;;;;;;;;;;5074747;28;20200;-86
2021/04/25 06:22:49;;;;;;;7.03;3.97;;;;;;;;;;5074460;28;20217;-84
2021/04/25 06:25:17;;;;;;;4.88;3.80;;;;;;;;;;5074406;28;20186;-84
2021/04/25 06:27:44;;;;;;;6.25;3.83;;;;;;;;;;5074591;28;20177;-87
2021/04/25 06:30:14;;;;;;;8.60;4.47;;;;;;;;;;5073789;28;20193;-87
2021/04/25 06:32:42;;;;;;;8.93;3.72;;;;;;;;;;5073528;28;20224;-85
2021/04/25 06:35:11;;;;;;;6.88;4.43;;;;;;;;;;5073600;28;20185;-86
2021/04/25 06:37:38;;;;;;;7.05;3.90;;;;;;;;;;5077124;28;20279;-86
2021/04/25 06:40:07;;;;;;;9.68;4.80;;;;;;;;;;5076882;28;20189;-87
2021/04/25 06:42:34;;;;;;;7.65;4.55;;;;;;;;;;5077217;28;20278;-86
2021/04/25 06:45:01;;;;;;;7.90;4.00;;;;;;;;;;5077077;28;20186;-84
2021/04/25 06:47:28;;;;;;;4.93;3.50;;;;;;;;;;5076973;28;20246;-86
2021/04/25 06:49:56;;;;;;;5.35;3.47;;;;;;;;;;5076817;28;20189;-86
2021/04/25 06:52:23;;;;;;;5.38;4.13;;;;;;;;;;5077634;28;20553;-85
2021/04/25 06:54:50;;;;;;;5.95;3.78;;;;;;;;;;5078230;28;20663;-84
2021/04/25 06:57:17;;;;;;;7.75;3.65;;;;;;;;;;5078222;28;20194;-85
2021/04/25 06:59:44;;;;;;;6.03;4.53;;;;;;;;;;5078192;28;20242;-85
2021/04/25 07:02:11;;;;;;;16.70;4.55;;;;;;;;;;5078788;28;20224;-85
2021/04/25 07:04:40;;;;;;;4.90;3.55;;;;;;;;;;5077930;28;20315;-84
2021/04/25 07:07:08;;;;;;;9.68;4.07;;;;;;;;;;5078142;28;20208;-84
2021/04/25 07:09:34;;;;;;;8.45;3.95;;;;;;;;;;5077726;28;20547;-85
2021/04/25 07:12:01;;;;;;;4.38;3.90;;;;;;;;;;5076747;28;20625;-85
2021/04/25 07:14:28;;;;;;;6.35;3.70;;;;;;;;;;5077431;28;20204;-85
2021/04/25 07:16:55;;;;;;;10.10;4.47;;;;;;;;;;5077960;28;20201;-84
2021/04/25 07:19:22;;;;;;;10.13;4.20;;;;;;;;;;5077229;28;20209;-84
2021/04/25 07:21:49;;;;;;;6.63;4.40;;;;;;;;;;5078024;28;20240;-84
2021/04/25 07:24:17;;;;;;;7.65;4.40;;;;;;;;;;5078187;28;20190;-84
2021/04/25 07:26:44;;;;;;;6.72;4.15;;;;;;;;;;5077689;28;20238;-85
2021/04/25 07:29:13;;;;;;;6.15;3.50;;;;;;;;;;5077550;28;20181;-85
2021/04/25 07:31:40;;;;;;;6.97;3.53;;;;;;;;;;5077295;28;20233;-85
2021/04/25 07:34:07;;;;;;;4.55;3.30;;;;;;;;;;5077443;28;20192;-83
2021/04/25 07:36:34;;;;;;;7.38;4.75;;;;;;;;;;5077353;28;20205;-85
2021/04/25 07:39:01;;;;;;;5.10;3.45;;;;;;;;;;5077225;28;20211;-84
2021/04/25 07:41:29;;;;;;;6.63;4.55;;;;;;;;;;5077424;28;20562;-84
2021/04/25 07:43:56;;;;;;;7.43;5.25;;;;;;;;;;5077529;28;20236;-85
2021/04/25 07:46:23;;;;;;;6.15;4.47;;;;;;;;;;5077367;28;20208;-85
2021/04/25 07:48:51;;;;;;;7.53;4.78;;;;;;;;;;5076791;28;20207;-85
2021/04/25 07:51:18;;;;;;;9.35;5.35;;;;;;;;;;5076816;28;20740;-85
2021/04/25 07:53:45;;;;;;;8.23;4.43;;;;;;;;;;5076340;28;20185;-85
2021/04/25 07:56:12;;;;;;;10.05;5.60;;;;;;;;;;5062261;28;20656;-85
2021/04/25 07:58:40;;;;;;;8.93;4.63;;;;;;;;;;5056581;28;20190;-84
2021/04/25 08:01:07;;;;;;;5.85;4.82;;;;;;;;;;5074368;28;20733;-84
2021/04/25 08:03:34;;;;;;;10.40;5.25;;;;;;;;;;5076137;28;20746;-84
2021/04/25 08:06:01;;;;;;;13.48;6.57;;;;;;;;;;5076569;28;20200;-85
2021/04/25 08:08:28;;;;;;;7.68;4.80;;;;;;;;;;5077179;28;20224;-84
2021/04/25 08:10:55;;;;;;;8.00;5.38;;;;;;;;;;5076639;28;20419;-85
2021/04/25 08:13:22;;;;;;;7.15;5.13;;;;;;;;;;5076231;28;20225;-85
2021/04/25 08:15:50;;;;;;;9.45;4.95;;;;;;;;;;5076486;28;20537;-85
2021/04/25 08:18:17;;;;;;;7.40;4.82;;;;;;;;;;5067224;28;20813;-85
2021/04/25 08:20:44;;;;;;;5.25;4.75;;;;;;;;;;5055617;28;20181;-85
2021/04/25 08:23:11;;;;;;;10.25;4.88;;;;;;;;;;5059135;28;20221;-85
2021/04/25 08:25:39;;;;;;;6.82;4.93;;;;;;;;;;5075515;28;20694;-85
2021/04/25 08:28:06;;;;;;;6.93;4.65;;;;;;;;;;5064029;28;20245;-84
2021/04/25 08:30:36;;;;;;;7.53;6.65;;;;;;;;;;5055993;28;20216;-85
2021/04/25 08:33:04;;;;;;;5.88;4.70;;;;;;;;;;5056131;28;20275;-85
2021/04/25 08:35:32;;;;;;;5.90;4.35;;;;;;;;;;5060441;28;20196;-85
2021/04/25 08:37:59;;;;;;;4.82;4.30;;;;;;;;;;5075718;28;20203;-85
2021/04/25 08:40:25;;;;;;;7.22;4.93;;;;;;;;;;5075084;28;20668;-85
2021/04/25 08:42:52;;;;;;;7.07;5.68;;;;;;;;;;5075231;28;20217;-85
2021/04/25 08:45:19;;;;;;;11.07;5.43;;;;;;;;;;5075595;28;20230;-85
2021/04/25 08:47:58;;;;;;;6.70;4.78;;;;;;;;;;5066239;28;20652;-84
2021/04/25 08:50:30;;;;;;;9.40;5.57;;;;;;;;;;5055425;28;20198;-85
2021/04/25 08:52:58;;;;;;;6.93;6.22;;;;;;;;;;5055424;28;20236;-84
2021/04/25 08:55:25;;;;;;;7.30;5.65;;;;;;;;;;5055884;28;20554;-84
2021/04/25 08:57:53;;;;;;;10.15;5.13;;;;;;;;;;5064772;28;20682;-84
2021/04/25 09:00:21;;;;;;;7.22;5.75;;;;;;;;;;5074611;28;20205;-85
2021/04/25 09:02:48;;;;;;;6.32;5.72;;;;;;;;;;5074736;28;20280;-84
2021/04/25 09:05:18;;;;;;;10.30;7.15;;;;;;;;;;5075084;28;20197;-85
2021/04/25 09:07:57;;;;;;;6.70;5.45;;;;;;;;;;5075029;28;20655;-84
2021/04/25 09:10:36;;;;;;;8.65;5.05;;;;;;;;;;5074925;28;20235;-83
2021/04/25 09:13:16;;;;;;;8.57;5.78;;;;;;;;;;5074084;28;20315;-84
2021/04/25 09:15:44;;;;;;;7.00;6.28;;;;;;;;;;5074057;28;20189;-84
2021/04/25 09:18:11;;;;;;;4.35;3.90;;;;;;;;;;5061745;28;20201;-84
2021/04/25 09:20:43;;;;;;;7.47;4.93;;;;;;;;;;5054407;28;20277;-84
2021/04/25 09:23:12;;;;;;;6.78;5.05;;;;;;;;;;5054335;28;20574;-84
2021/04/25 09:25:41;;;;;;;6.35;4.78;;;;;;;;;;5054376;28;20190;-83
2021/04/25 09:28:14;;;;;;;8.25;6.07;;;;;;;;;;5055508;28;20205;-85
2021/04/25 09:30:54;;;;;;;5.57;4.63;;;;;;;;;;5054523;28;20288;-85
2021/04/25 09:33:21;;;;;;;5.72;4.47;;;;;;;;;;5052964;28;20603;-84
2021/04/25 09:35:48;;;;;;;7.30;4.68;;;;;;;;;;5053397;28;20251;-83
2021/04/25 09:38:17;;;;;;;5.03;4.50;;;;;;;;;;5054334;28;20196;-83
2021/04/25 09:40:46;;;;;;;7.63;3.72;;;;;;;;;;5054050;28;20181;-84
2021/04/25 09:43:15;;;;;;;5.18;4.63;;;;;;;;;;5054129;28;20213;-84
2021/04/25 09:45:44;;;;;;;4.40;3.97;;;;;;;;;;5052780;28;20202;-83
2021/04/25 09:48:25;;;;;;;6.50;4.70;;;;;;;;;;5054014;28;20208;-83
2021/04/25 09:51:13;;;;;;;5.10;3.97;;;;;;;;;;5054675;28;20197;-84
2021/04/25 09:53:43;;;;;;;6.13;4.30;;;;;;;;;;5053135;28;20225;-83
2021/04/25 09:56:11;;;;;;;4.55;3.38;;;;;;;;;;5051628;28;20196;-83
2021/04/25 09:59:01;;;;;;;7.03;4.43;;;;;;;;;;5052481;28;20254;-85
2021/04/25 10:01:29;;;;;;;7.90;4.38;;;;;;;;;;5053766;28;20209;-83
2021/04/25 10:03:57;;;;;;;4.22;3.47;;;;;;;;;;5052697;28;20259;-83
2021/04/25 10:06:25;;;;;;;4.63;3.55;;;;;;;;;;5052201;28;20223;-83
2021/04/25 10:08:53;;;;;;;5.30;3.25;;;;;;;;;;5050989;28;20183;-83
2021/04/25 10:11:25;;;;;;;5.50;4.43;;;;;;;;;;5056866;28;20194;-84
2021/04/25 10:13:52;;;;;;;6.15;3.17;;;;;;;;;;5057078;28;20202;-84
2021/04/25 10:16:21;;;;;;;6.55;3.08;;;;;;;;;;5056509;28;20589;-83
2021/04/25 10:18:49;;;;;;;5.15;2.75;;;;;;;;;;5056676;28;20561;-84
2021/04/25 10:21:16;;;;;;;4.78;3.33;;;;;;;;;;5057075;28;20576;-84
2021/04/25 10:23:43;;;;;;;3.55;3.13;;;;;;;;;;5057496;28;20256;-84
2021/04/25 10:26:12;;;;;;;9.65;3.15;;;;;;;;;;5057855;28;20213;-84
2021/04/25 10:28:42;;;;;;;4.22;3.80;;;;;;;;;;5057474;28;20632;-84
2021/04/25 10:31:12;;;;;;;5.75;3.28;;;;;;;;;;5057071;28;20212;-84
2021/04/25 10:33:57;;;;;;;3.28;2.90;;;;;;;;;;5056975;28;20225;-85
2021/04/25 10:36:50;;;;;;;3.92;2.83;;;;;;;;;;5057069;28;20182;-84
2021/04/25 10:39:39;;;;;;;4.00;2.88;;;;;;;;;;5056564;28;20206;-85
2021/04/25 10:42:32;;;;;;;3.97;2.72;;;;;;;;;;5055043;28;20225;-84
2021/04/25 10:45:24;;;;;;;3.28;2.95;;;;;;;;;;5057005;28;20281;-83
2021/04/25 10:48:35;;;;;;;7.50;3.90;;;;;;;;;;5057175;28;20202;-85
2021/04/25 10:51:09;;;;;;;4.55;3.35;;;;;;;;;;5046176;28;20205;-84
2021/04/25 10:53:38;;;;;;;7.35;4.18;;;;;;;;;;5056249;28;20222;-83
2021/04/25 10:56:37;;;;;;;4.25;2.97;;;;;;;;;;5055821;28;20193;-84
2021/04/25 10:59:31;;;;;;;3.17;2.42;;;;;;;;;;5056635;28;20856;-85
2021/04/25 11:02:00;;;;;;;6.07;2.63;;;;;;;;;;5057141;28;20235;-84
2021/04/25 11:05:07;;;;;;;5.10;2.72;;;;;;;;;;5054872;28;20237;-84
2021/04/25 11:07:45;;;;;;;5.45;2.55;;;;;;;;;;5055417;28;20699;-85
2021/04/25 11:10:16;;;;;;;5.15;2.42;;;;;;;;;;5055825;28;20201;-84
2021/04/25 11:12:45;;;;;;;2.97;2.30;;;;;;;;;;5055758;28;20247;-83
2021/04/25 11:15:56;;;;;;;3.50;2.50;;;;;;;;;;5056204;28;20267;-83
2021/04/25 11:18:49;;;;;;;8.00;2.88;;;;;;;;;;5054716;28;20209;-85
2021/04/25 11:21:54;;;;;;;8.23;3.22;;;;;;;;;;5064908;28;20193;-84
2021/04/25 11:24:38;;;;;;;4.00;2.88;;;;;;;;;;5065289;28;20188;-83
2021/04/25 11:27:10;;;;;;;3.45;2.58;;;;;;;;;;5065182;28;20197;-84
2021/04/25 11:29:59;;;;;;;2.17;1.90;;;;;;;;;;5065202;28;20589;-84
2021/04/25 11:32:40;;;;;;;6.20;2.65;;;;;;;;;;5063804;28;20259;-84
2021/04/25 11:35:13;;;;;;;5.35;2.47;;;;;;;;;;5066771;28;20197;-85
2021/04/25 11:37:45;;;;;;;5.43;2.70;;;;;;;;;;5075543;28;20280;-84
2021/04/25 11:40:12;;;;;;;3.35;2.40;;;;;;;;;;5076393;28;20193;-85
2021/04/25 11:42:47;;;;;;;5.85;2.55;;;;;;;;;;5075887;28;20221;-84
2021/04/25 11:45:26;;;;;;;3.85;2.33;;;;;;;;;;5075805;28;20205;-85
2021/04/25 11:47:56;;;;;;;2.30;2.10;;;;;;;;;;5075802;28;20561;-84
2021/04/25 11:50:34;;;;;;;3.72;2.53;;;;;;;;;;5076145;28;20550;-84
2021/04/25 11:53:02;;;;;;;3.97;2.60;;;;;;;;;;5075248;28;20224;-84
2021/04/25 11:55:30;;;;;;;2.65;2.30;;;;;;;;;;5075883;28;20228;-85
2021/04/25 11:57:58;;;;;;;2.65;2.25;;;;;;;;;;5075865;28;20185;-84
2021/04/25 12:00:27;;;;;;;3.42;2.30;;;;;;;;;;5075758;28;20239;-85
2021/04/25 12:02:57;;;;;;;2.70;2.47;;;;;;;;;;5075802;28;20262;-84
2021/04/25 12:05:26;;;;;;;4.85;2.90;;;;;;;;;;5075692;28;20187;-85
2021/04/25 12:07:55;;;;;;;3.20;2.97;;;;;;;;;;5075612;28;20245;-84
2021/04/25 12:10:26;;;;;;;4.50;2.80;;;;;;;;;;5075714;28;20213;-85
2021/04/25 12:13:14;;;;;;;3.35;2.45;;;;;;;;;;5075706;28;20231;-85
2021/04/25 12:15:48;;;;;;;2.95;2.45;;;;;;;;;;5074917;28;20205;-84
2021/04/25 12:18:18;;;;;;;2.58;2.38;;;;;;;;;;5075194;28;20627;-84
2021/04/25 12:20:48;;;;;;;2.83;2.63;;;;;;;;;;5075381;28;20193;-85
2021/04/25 12:23:19;;;;;;;6.13;2.63;;;;;;;;;;5075499;28;20616;-84
2021/04/25 12:25:47;;;;;;;2.58;2.38;;;;;;;;;;5075074;28;20554;-84
2021/04/25 12:28:14;;;;;;;2.78;2.42;;;;;;;;;;5075175;28;20209;-84
2021/04/25 12:30:45;;;;;;;1.88;1.77;;;;;;;;;;5074956;28;20260;-85
2021/04/25 12:33:14;;;;;;;3.15;2.58;;;;;;;;;;5073992;28;20247;-85
2021/04/25 12:35:51;;;;;;;8.23;3.00;;;;;;;;;;5075294;28;20200;-84
2021/04/25 12:38:24;;;;;;;4.35;3.00;;;;;;;;;;5075471;28;20241;-84
2021/04/25 12:41:01;;;;;;;2.45;2.22;;;;;;;;;;5074250;28;20315;-84
2021/04/25 12:43:30;;;;;;;6.22;2.38;;;;;;;;;;5075628;28;20223;-84
2021/04/25 12:45:58;;;;;;;5.28;3.30;;;;;;;;;;5075283;28;20200;-84
2021/04/25 12:48:34;;;;;;;2.60;2.40;;;;;;;;;;5074262;28;20732;-84
2021/04/25 12:51:13;;;;;;;3.08;2.60;;;;;;;;;;5074953;28;20196;-85
2021/04/25 12:53:45;;;;;;;4.07;2.28;;;;;;;;;;5074794;28;20225;-84
2021/04/25 12:56:28;;;;;;;4.40;2.78;;;;;;;;;;5074180;28;20197;-84
2021/04/25 12:59:08;;;;;;;2.53;2.15;;;;;;;;;;5075840;28;20189;-85
2021/04/25 13:01:39;;;;;;;4.68;2.42;;;;;;;;;;5075113;28;20192;-85
2021/04/25 13:04:29;;;;;;;5.55;3.08;;;;;;;;;;5074585;28;20228;-85
2021/04/25 13:07:22;;;;;;;5.47;2.92;;;;;;;;;;5074069;28;20224;-83
2021/04/25 13:10:26;;;;;;;7.05;2.42;;;;;;;;;;5073593;28;20252;-84
2021/04/25 13:12:54;;;;;;;5.07;2.55;;;;;;;;;;5073682;28;20239;-85
2021/04/25 13:15:36;;;;;;;5.50;2.60;;;;;;;;;;5074370;28;20331;-84
2021/04/25 13:18:06;;;;;;;3.65;2.42;;;;;;;;;;5074737;28;20265;-84
2021/04/25 13:20:38;;;;;;;3.78;2.00;;;;;;;;;;5074790;28;20721;-85
2021/04/25 13:23:08;;;;;;;2.63;2.10;;;;;;;;;;5074751;28;20213;-85
2021/04/25 13:25:37;;;;;;;3.70;2.40;;;;;;;;;;5074287;28;20203;-84
2021/04/25 13:28:07;;;;;;;2.83;2.42;;;;;;;;;;5074999;28;20671;-84
2021/04/25 13:30:38;;;;;;;7.25;2.30;;;;;;;;;;5074744;28;20208;-84
2021/04/25 13:33:08;;;;;;;7.70;2.20;;;;;;;;;;5074834;28;20595;-84
2021/04/25 13:35:35;;;;;;;4.47;2.20;;;;;;;;;;5074382;28;20204;-85
2021/04/25 13:38:02;;;;;;;3.65;2.17;;;;;;;;;;5074473;28;20197;-85
2021/04/25 13:40:32;;;;;;;4.30;2.33;;;;;;;;;;5074703;28;20265;-85
2021/04/25 13:43:00;;;;;;;5.25;2.53;;;;;;;;;;5075265;28;20227;-84
2021/04/25 13:45:28;;;;;;;3.72;2.63;;;;;;;;;;5077662;28;20690;-84
2021/04/25 13:47:55;;;;;;;4.75;2.22;;;;;;;;;;5079667;28;20222;-85
2021/04/25 13:50:22;;;;;;;4.13;2.47;;;;;;;;;;5079449;28;20212;-84
2021/04/25 13:52:49;;;;;;;2.45;2.25;;;;;;;;;;5078569;28;20228;-84
2021/04/25 13:55:17;;;;;;;3.30;2.10;;;;;;;;;;5078537;28;20231;-85
2021/04/25 13:57:45;;;;;;;7.05;2.88;;;;;;;;;;5078869;28;20671;-85
2021/04/25 14:00:15;;;;;;;3.33;2.50;;;;;;;;;;5079012;28;20200;-85
2021/04/25 14:02:43;;;;;;;3.20;2.00;;;;;;;;;;5078625;28;20272;-84
2021/04/25 14:05:11;;;;;;;6.07;2.33;;;;;;;;;;5077549;28;20200;-85
2021/04/25 14:07:38;;;;;;;4.15;2.60;;;;;;;;;;5077983;28;20201;-84
2021/04/25 14:10:07;;;;;;;2.53;2.10;;;;;;;;;;5078658;28;20201;-85
2021/04/25 14:12:34;;;;;;;6.00;2.58;;;;;;;;;;5078317;28;20710;-84
2021/04/25 14:15:02;;;;;;;4.15;2.30;;;;;;;;;;5078093;28;20274;-86
2021/04/25 14:17:29;;;;;;;3.28;2.42;;;;;;;;;;5078957;28;20270;-84
2021/04/25 14:19:56;;;;;;;2.35;1.83;;;;;;;;;;5079236;28;20625;-85
2021/04/25 14:22:23;;;;;;;4.38;3.08;;;;;;;;;;5078404;28;20229;-85
2021/04/25 14:24:50;;;;;;;6.47;3.35;;;;;;;;;;5078689;28;20205;-84
2021/04/25 14:27:18;;;;;;;3.65;2.53;;;;;;;;;;5078251;28;20251;-85
2021/04/25 14:29:45;;;;;;;3.20;2.40;;;;;;;;;;5078415;28;20663;-84
2021/04/25 14:32:13;;;;;;;3.78;2.45;;;;;;;;;;5078573;28;20224;-85
2021/04/25 14:34:40;;;;;;;4.72;2.53;;;;;;;;;;5078651;28;20225;-85
2021/04/25 14:37:07;;;;;;;4.55;2.17;;;;;;;;;;5077777;28;20694;-85
2021/04/25 14:39:34;;;;;;;4.45;2.33;;;;;;;;;;5078448;28;20254;-85
2021/04/25 14:42:01;;;;;;;8.18;3.47;;;;;;;;;;5078638;28;20223;-85
2021/04/25 14:44:29;;;;;;;5.95;1.98;;;;;;;;;;5079079;28;20669;-85
2021/04/25 14:46:56;;;;;;;3.35;1.88;;;;;;;;;;5077842;28;20205;-84
2021/04/25 14:49:24;;;;;;;3.25;2.60;;;;;;;;;;5087165;28;20197;-84
2021/04/25 14:51:52;;;;;;;4.43;2.22;;;;;;;;;;5088694;28;20229;-84
2021/04/25 14:54:19;;;;;;;6.25;2.15;;;;;;;;;;5088998;28;20229;-83
2021/04/25 14:56:46;;;;;;;3.25;2.20;;;;;;;;;;5090048;28;20201;-84
2021/04/25 14:59:13;;;;;;;2.80;2.10;;;;;;;;;;5093272;28;20200;-84